createdAt,value
2017-11-07T00:00:48.402Z,7.90
2017-11-07T00:03:15.818Z,7.83
2017-11-07T00:05:43.230Z,8.03
2017-11-07T00:08:11.418Z,9.13
2017-11-07T00:10:38.829Z,7.70
2017-11-07T00:13:06.252Z,7.37
2017-11-07T00:15:34.895Z,7.77
2017-11-07T00:18:03.094Z,8.70
2017-11-07T00:20:30.561Z,9.07
2017-11-07T00:22:57.970Z,9.30
2017-11-07T00:25:25.384Z,8.60
2017-11-07T00:27:52.798Z,8.90
2017-11-07T00:30:20.978Z,10.80
2017-11-07T00:32:48.394Z,9.77
2017-11-07T00:35:15.917Z,9.23
2017-11-07T00:37:43.334Z,11.40
2017-11-07T00:40:11.522Z,8.23
2017-11-07T00:42:38.934Z,8.00
2017-11-07T00:45:06.351Z,8.53
2017-11-07T00:47:34.021Z,8.93
2017-11-07T00:50:01.444Z,8.83
2017-11-07T00:52:29.617Z,7.50
2017-11-07T00:54:57.802Z,8.93
2017-11-07T00:57:25.206Z,8.33
2017-11-07T00:59:52.619Z,7.67
2017-11-07T01:02:20.035Z,7.23
2017-11-07T01:04:47.453Z,7.37
2017-11-07T01:07:14.910Z,7.93
2017-11-07T01:09:42.322Z,8.57
2017-11-07T01:12:10.510Z,7.23
2017-11-07T01:14:37.927Z,9.20
2017-11-07T01:17:06.507Z,8.07
2017-11-07T01:19:33.923Z,9.17
2017-11-07T01:22:01.387Z,9.47
2017-11-07T01:24:28.799Z,8.93
2017-11-07T01:26:56.238Z,9.77
2017-11-07T01:29:23.655Z,10.83
2017-11-07T01:31:51.076Z,9.80
2017-11-07T01:34:19.267Z,10.37
2017-11-07T01:36:47.439Z,9.87
2017-11-07T01:39:14.859Z,9.57
2017-11-07T01:41:42.272Z,9.70
2017-11-07T01:44:09.697Z,8.33
2017-11-07T01:46:37.873Z,8.90
2017-11-07T01:49:06.055Z,9.87
2017-11-07T01:51:33.478Z,10.90
2017-11-07T01:54:00.893Z,11.67
2017-11-07T01:56:28.553Z,10.67
2017-11-07T01:58:55.983Z,14.47
2017-11-07T02:01:23.394Z,12.70
2017-11-07T02:03:51.023Z,13.77
2017-11-07T02:06:18.439Z,14.23
2017-11-07T02:08:47.285Z,13.30
2017-11-07T02:11:14.729Z,12.10
2017-11-07T02:13:42.186Z,12.60
2017-11-07T02:16:09.589Z,12.17
2017-11-07T02:18:37.014Z,12.50
2017-11-07T02:21:04.426Z,13.87
2017-11-07T02:23:31.886Z,12.17
2017-11-07T02:25:59.304Z,12.67
2017-11-07T02:28:26.826Z,13.00
2017-11-07T02:30:54.243Z,10.57
2017-11-07T02:33:23.210Z,11.57
2017-11-07T02:35:50.630Z,13.53
2017-11-07T02:38:18.046Z,11.03
2017-11-07T02:40:46.242Z,10.50
2017-11-07T02:43:13.665Z,11.60
2017-11-07T02:45:41.074Z,9.90
2017-11-07T02:48:09.498Z,10.73
2017-11-07T02:50:36.901Z,9.90
2017-11-07T02:53:04.306Z,10.43
2017-11-07T02:55:31.722Z,9.53
2017-11-07T02:57:59.491Z,11.03
2017-11-07T03:00:26.884Z,9.50
2017-11-07T03:02:54.293Z,10.23
2017-11-07T03:05:21.712Z,12.10
2017-11-07T03:07:49.895Z,13.37
2017-11-07T03:10:17.314Z,10.97
2017-11-07T03:12:44.734Z,12.17
2017-11-07T03:15:12.943Z,11.53
2017-11-07T03:17:40.366Z,11.83
2017-11-07T03:20:07.778Z,12.07
2017-11-07T03:22:35.969Z,12.40
2017-11-07T03:25:03.390Z,11.90
2017-11-07T03:27:30.803Z,13.60
2017-11-07T03:29:58.228Z,14.10
2017-11-07T03:32:26.406Z,13.17
2017-11-07T03:34:55.509Z,13.47
2017-11-07T03:37:23.686Z,14.10
2017-11-07T03:39:51.103Z,14.50
2017-11-07T03:42:18.524Z,14.20
2017-11-07T03:44:45.938Z,13.87
2017-11-07T03:47:14.123Z,13.40
2017-11-07T03:49:41.541Z,12.63
2017-11-07T03:52:08.951Z,11.37
2017-11-07T03:54:36.367Z,12.10
2017-11-07T03:57:03.791Z,11.73
2017-11-07T03:59:31.206Z,13.37
2017-11-07T04:01:58.627Z,12.37
2017-11-07T04:04:26.048Z,11.70
2017-11-07T04:06:53.467Z,14.00
2017-11-07T04:09:21.654Z,12.53
2017-11-07T04:11:49.066Z,12.27
2017-11-07T04:14:16.489Z,12.33
2017-11-07T04:16:43.906Z,13.50
2017-11-07T04:19:12.093Z,14.43
2017-11-07T04:21:39.502Z,13.40
2017-11-07T04:24:06.920Z,14.47
2017-11-07T04:26:34.335Z,14.07
2017-11-07T04:29:02.527Z,15.03
2017-11-07T04:31:29.947Z,14.13
2017-11-07T04:33:57.386Z,15.90
2017-11-07T04:36:24.794Z,15.47
2017-11-07T04:38:52.215Z,16.60
2017-11-07T04:41:19.636Z,14.03
2017-11-07T04:43:47.474Z,16.43
2017-11-07T04:46:14.890Z,16.40
2017-11-07T04:48:42.309Z,16.03
2017-11-07T04:51:09.732Z,16.47
2017-11-07T04:53:37.920Z,14.60
2017-11-07T04:56:05.332Z,14.40
2017-11-07T04:58:32.755Z,15.13
2017-11-07T05:01:00.798Z,15.00
2017-11-07T05:03:28.971Z,16.33
2017-11-07T05:05:57.159Z,14.83
2017-11-07T05:08:24.575Z,14.63
2017-11-07T05:10:52.000Z,12.53
2017-11-07T05:13:19.411Z,12.93
2017-11-07T05:15:48.098Z,13.43
2017-11-07T05:18:16.288Z,12.83
2017-11-07T05:20:43.695Z,11.00
2017-11-07T05:23:12.039Z,10.80
2017-11-07T05:25:39.495Z,10.90
2017-11-07T05:28:06.910Z,12.23
2017-11-07T05:30:35.094Z,10.23
2017-11-07T05:33:02.519Z,11.73
2017-11-07T05:35:29.944Z,10.73
2017-11-07T05:37:57.366Z,11.77
2017-11-07T05:40:25.059Z,9.10
2017-11-07T05:42:52.450Z,11.70
2017-11-07T05:45:21.378Z,12.37
2017-11-07T05:47:48.802Z,10.93
2017-11-07T05:50:16.983Z,9.93
2017-11-07T05:52:45.382Z,10.73
2017-11-07T05:55:12.798Z,8.87
2017-11-07T05:57:40.225Z,10.10
2017-11-07T06:00:07.634Z,11.00
2017-11-07T06:02:35.815Z,12.47
2017-11-07T06:05:04.003Z,12.87
2017-11-07T06:07:31.422Z,11.07
2017-11-07T06:09:58.839Z,10.60
2017-11-07T06:12:26.258Z,12.90
2017-11-07T06:14:54.445Z,13.20
2017-11-07T06:17:22.231Z,12.50
2017-11-07T06:19:49.638Z,11.80
2017-11-07T06:22:17.058Z,13.30
2017-11-07T06:24:44.466Z,13.13
2017-11-07T06:27:12.648Z,12.67
2017-11-07T06:29:40.847Z,12.80
2017-11-07T06:32:08.250Z,14.83
2017-11-07T06:34:36.195Z,13.80
2017-11-07T06:37:03.615Z,18.50
2017-11-07T06:39:31.084Z,21.73
2017-11-07T06:41:58.747Z,23.23
2017-11-07T06:44:26.155Z,14.80
2017-11-07T06:46:53.557Z,12.40
2017-11-07T06:49:20.995Z,11.90
2017-11-07T06:51:48.400Z,11.70
2017-11-07T06:54:15.820Z,11.70
2017-11-07T06:56:43.244Z,10.27
2017-11-07T06:59:11.410Z,9.27
2017-11-07T07:01:39.610Z,11.70
2017-11-07T07:04:07.023Z,10.00
2017-11-07T07:06:34.423Z,8.50
2017-11-07T07:09:02.187Z,8.07
2017-11-07T07:11:30.341Z,7.90
2017-11-07T07:13:58.528Z,11.87
2017-11-07T07:16:25.947Z,10.10
2017-11-07T07:18:53.370Z,13.47
2017-11-07T07:21:20.806Z,11.17
2017-11-07T07:23:48.218Z,11.27
2017-11-07T07:26:17.318Z,13.80
2017-11-07T07:28:44.742Z,16.00
2017-11-07T07:31:12.826Z,18.23
2017-11-07T07:33:40.256Z,14.63
2017-11-07T07:36:07.667Z,12.53
2017-11-07T07:38:35.856Z,12.30
2017-11-07T07:41:04.031Z,13.80
2017-11-07T07:43:32.219Z,14.30
2017-11-07T07:45:59.639Z,13.70
2017-11-07T07:48:27.066Z,11.80
2017-11-07T07:50:54.482Z,11.43
2017-11-07T07:53:21.902Z,11.10
2017-11-07T07:55:49.318Z,12.33
2017-11-07T07:58:16.730Z,10.60
2017-11-07T08:00:45.424Z,11.03
2017-11-07T08:03:13.605Z,11.97
2017-11-07T08:05:41.024Z,10.53
2017-11-07T08:08:08.461Z,10.83
2017-11-07T08:10:35.862Z,9.43
2017-11-07T08:13:04.042Z,10.27
2017-11-07T08:15:32.230Z,11.93
2017-11-07T08:17:59.647Z,10.60
2017-11-07T08:20:27.070Z,11.27
2017-11-07T08:22:54.477Z,10.77
2017-11-07T08:25:22.662Z,11.07
2017-11-07T08:27:50.078Z,11.53
2017-11-07T08:30:17.495Z,11.73
2017-11-07T08:32:45.438Z,9.80
2017-11-07T08:35:13.631Z,10.90
2017-11-07T08:37:41.042Z,9.77
2017-11-07T08:40:08.458Z,9.40
2017-11-07T08:42:35.878Z,10.00
2017-11-07T08:45:04.070Z,8.97
2017-11-07T08:47:31.470Z,10.53
2017-11-07T08:49:58.881Z,10.50
2017-11-07T08:52:26.304Z,10.10
2017-11-07T08:54:54.482Z,9.80
2017-11-07T08:57:22.667Z,10.97
2017-11-07T08:59:50.847Z,10.07
2017-11-07T09:02:19.065Z,10.77
2017-11-07T09:04:46.474Z,9.60
2017-11-07T09:07:14.663Z,10.67
2017-11-07T09:09:42.074Z,8.30
2017-11-07T09:12:09.489Z,8.80
2017-11-07T09:14:36.909Z,8.73
2017-11-07T09:17:04.310Z,10.47
2017-11-07T09:19:31.727Z,8.83
2017-11-07T09:21:59.923Z,8.70
2017-11-07T09:24:27.334Z,9.37
2017-11-07T09:26:54.757Z,9.03
2017-11-07T09:29:22.167Z,8.60
2017-11-07T09:31:50.347Z,8.30
2017-11-07T09:34:17.763Z,7.37
2017-11-07T09:36:45.463Z,7.90
2017-11-07T09:39:12.891Z,7.90
2017-11-07T09:41:40.301Z,8.93
2017-11-07T09:44:08.211Z,8.17
2017-11-07T09:46:35.623Z,8.77
2017-11-07T09:49:03.050Z,7.70
2017-11-07T09:51:31.228Z,7.60
2017-11-07T09:53:59.414Z,7.07
2017-11-07T09:56:26.823Z,8.10
2017-11-07T09:58:54.248Z,7.77
2017-11-07T10:01:21.662Z,8.07
2017-11-07T10:03:49.858Z,7.80
2017-11-07T10:06:17.275Z,7.83
2017-11-07T10:08:48.398Z,8.93
2017-11-07T10:11:15.817Z,8.87
2017-11-07T10:13:43.234Z,8.40
2017-11-07T10:16:10.634Z,7.30
2017-11-07T10:18:38.046Z,8.20
2017-11-07T10:21:05.474Z,8.70
2017-11-07T10:23:32.892Z,8.50
2017-11-07T10:26:00.311Z,8.07
2017-11-07T10:28:27.723Z,8.17
2017-11-07T10:30:55.150Z,7.80
2017-11-07T10:33:22.562Z,7.77
2017-11-07T10:35:49.995Z,7.07
2017-11-07T10:38:17.402Z,8.53
2017-11-07T10:40:46.753Z,8.30
2017-11-07T10:43:14.175Z,8.17
2017-11-07T10:45:42.488Z,6.90
2017-11-07T10:48:09.893Z,8.77
2017-11-07T10:50:38.080Z,7.83
2017-11-07T10:53:05.499Z,7.87
2017-11-07T10:55:33.833Z,8.23
2017-11-07T10:58:01.244Z,8.13
2017-11-07T11:00:28.682Z,7.97
2017-11-07T11:02:56.113Z,9.93
2017-11-07T11:05:23.526Z,8.23
2017-11-07T11:07:51.715Z,9.40
2017-11-07T11:10:19.132Z,8.80
2017-11-07T11:12:46.562Z,8.23
2017-11-07T11:15:14.743Z,7.20
2017-11-07T11:17:42.589Z,8.07
2017-11-07T11:20:09.991Z,8.23
2017-11-07T11:22:37.416Z,8.07
2017-11-07T11:25:05.134Z,7.90
2017-11-07T11:27:33.318Z,7.83
2017-11-07T11:30:00.738Z,7.70
2017-11-07T11:32:28.165Z,9.40
2017-11-07T11:34:55.582Z,8.50
2017-11-07T11:37:22.990Z,7.93
2017-11-07T11:39:50.416Z,7.37
2017-11-07T11:42:17.826Z,8.67
2017-11-07T11:44:45.243Z,7.53
2017-11-07T11:47:13.458Z,8.00
2017-11-07T11:49:40.875Z,7.97
2017-11-07T11:52:08.285Z,7.07
2017-11-07T11:54:36.461Z,7.50
2017-11-07T11:57:04.641Z,6.70
2017-11-07T11:59:32.841Z,7.97
2017-11-07T12:02:00.243Z,7.70
2017-11-07T12:04:27.667Z,7.53
2017-11-07T12:06:55.074Z,6.10
2017-11-07T12:09:23.257Z,7.60
2017-11-07T12:11:50.698Z,8.47
2017-11-07T12:14:18.885Z,7.77
2017-11-07T12:16:46.306Z,7.23
2017-11-07T12:19:15.250Z,7.83
2017-11-07T12:21:42.666Z,8.37
2017-11-07T12:24:10.075Z,7.60
2017-11-07T12:26:37.498Z,7.83
2017-11-07T12:29:05.673Z,7.70
2017-11-07T12:31:33.866Z,8.20
2017-11-07T12:34:01.277Z,8.40
2017-11-07T12:36:28.684Z,8.70
2017-11-07T12:38:56.107Z,8.30
2017-11-07T12:41:24.279Z,8.73
2017-11-07T12:43:52.463Z,7.23
2017-11-07T12:46:21.430Z,7.90
2017-11-07T12:48:48.850Z,7.80
2017-11-07T12:51:28.278Z,7.53
2017-11-07T12:53:55.682Z,8.33
2017-11-07T12:56:23.627Z,7.50
2017-11-07T12:58:51.050Z,8.00
2017-11-07T13:01:18.483Z,8.60
2017-11-07T13:03:46.650Z,8.53
2017-11-07T13:06:14.828Z,8.50
2017-11-07T13:08:43.011Z,8.83
2017-11-07T13:11:10.422Z,9.60
2017-11-07T13:13:37.843Z,9.93
2017-11-07T13:16:05.254Z,10.90
2017-11-07T13:18:32.683Z,9.80
2017-11-07T13:21:00.098Z,9.90
2017-11-07T13:23:27.518Z,10.07
2017-11-07T13:25:55.646Z,9.33
2017-11-07T13:28:23.051Z,9.70
2017-11-07T13:30:51.248Z,10.10
2017-11-07T13:33:18.654Z,10.83
2017-11-07T13:35:46.074Z,10.53
2017-11-07T13:38:13.490Z,11.30
2017-11-07T13:40:41.805Z,9.60
2017-11-07T13:43:09.218Z,10.37
2017-11-07T13:45:36.643Z,11.27
2017-11-07T13:48:04.059Z,9.80
2017-11-07T13:50:31.477Z,9.77
2017-11-07T13:52:58.879Z,9.83
2017-11-07T13:55:26.298Z,10.93
2017-11-07T13:57:53.705Z,10.13
2017-11-07T14:00:21.127Z,10.37
2017-11-07T14:02:49.311Z,10.33
2017-11-07T14:05:16.734Z,10.13
2017-11-07T14:07:44.142Z,10.33
2017-11-07T14:10:11.567Z,10.23
2017-11-07T14:12:39.747Z,11.10
2017-11-07T14:15:07.935Z,10.40
2017-11-07T14:17:35.350Z,10.00
2017-11-07T14:20:02.765Z,9.70
2017-11-07T14:22:30.182Z,10.10
2017-11-07T14:24:58.358Z,10.47
2017-11-07T14:27:26.550Z,11.17
2017-11-07T14:29:53.958Z,12.20
2017-11-07T14:32:21.380Z,10.60
2017-11-07T14:34:48.795Z,10.67
2017-11-07T14:37:16.988Z,10.63
2017-11-07T14:39:45.166Z,12.17
2017-11-07T14:42:12.583Z,10.13
2017-11-07T14:44:40.002Z,11.20
2017-11-07T14:47:07.426Z,12.90
2017-11-07T14:49:34.847Z,11.10
2017-11-07T14:52:02.271Z,10.23
2017-11-07T14:54:29.685Z,11.70
2017-11-07T14:56:57.871Z,12.80
2017-11-07T14:59:25.294Z,12.70
2017-11-07T15:01:52.702Z,11.33
2017-11-07T15:04:20.125Z,11.47
2017-11-07T15:06:48.302Z,11.03
2017-11-07T15:09:17.378Z,11.20
2017-11-07T15:11:44.792Z,12.27
2017-11-07T15:14:12.219Z,10.30
2017-11-07T15:16:39.634Z,11.90
2017-11-07T15:19:07.060Z,11.27
2017-11-07T15:21:34.470Z,11.47
2017-11-07T15:24:02.650Z,11.70
2017-11-07T15:26:30.839Z,11.10
2017-11-07T15:28:58.258Z,11.97
2017-11-07T15:31:25.672Z,11.47
2017-11-07T15:33:54.350Z,12.43
2017-11-07T15:36:21.762Z,11.37
2017-11-07T15:38:49.183Z,12.10
2017-11-07T15:41:17.367Z,10.73
2017-11-07T15:43:44.778Z,11.27
2017-11-07T15:46:12.203Z,11.97
2017-11-07T15:48:39.628Z,12.27
2017-11-07T15:51:07.046Z,13.67
2017-11-07T15:53:34.454Z,11.60
2017-11-07T15:56:03.382Z,10.37
2017-11-07T15:58:31.566Z,10.07
2017-11-07T16:00:59.747Z,10.13
2017-11-07T16:03:27.169Z,10.80
2017-11-07T16:05:54.587Z,9.60
2017-11-07T16:08:21.995Z,11.23
2017-11-07T16:10:50.187Z,10.80
2017-11-07T16:13:17.595Z,10.20
2017-11-07T16:15:45.031Z,10.33
2017-11-07T16:18:12.446Z,11.30
2017-11-07T16:20:39.863Z,10.30
2017-11-07T16:23:07.283Z,11.07
2017-11-07T16:25:34.702Z,11.83
2017-11-07T16:28:02.894Z,11.83
2017-11-07T16:30:30.312Z,11.23
2017-11-07T16:32:57.730Z,10.70
2017-11-07T16:35:25.154Z,11.07
2017-11-07T16:37:53.348Z,10.73
2017-11-07T16:40:20.755Z,10.00
2017-11-07T16:42:48.173Z,12.17
2017-11-07T16:45:15.982Z,13.00
2017-11-07T16:47:43.402Z,12.67
2017-11-07T16:50:10.829Z,10.63
2017-11-07T16:52:38.240Z,11.80
2017-11-07T16:55:06.499Z,11.23
2017-11-07T16:57:33.918Z,11.40
2017-11-07T17:00:01.804Z,12.20
2017-11-07T17:02:29.206Z,12.10
2017-11-07T17:04:56.627Z,9.97
2017-11-07T17:07:24.064Z,10.80
2017-11-07T17:09:51.466Z,11.40
2017-11-07T17:12:18.879Z,11.90
2017-11-07T17:14:46.294Z,14.27
2017-11-07T17:17:14.479Z,13.23
2017-11-07T17:19:42.665Z,12.00
2017-11-07T17:22:10.078Z,12.50
2017-11-07T17:24:37.499Z,11.70
2017-11-07T17:27:04.910Z,13.03
2017-11-07T17:29:33.102Z,11.73
2017-11-07T17:32:00.513Z,11.67
2017-11-07T17:34:27.933Z,9.47
2017-11-07T17:36:55.347Z,11.27
2017-11-07T17:39:22.776Z,11.30
2017-11-07T17:41:50.955Z,9.07
2017-11-07T17:44:18.367Z,9.40
2017-11-07T17:46:45.788Z,9.97
2017-11-07T17:49:13.198Z,9.60
2017-11-07T17:51:40.654Z,10.40
2017-11-07T17:54:08.059Z,9.73
2017-11-07T17:56:36.371Z,11.10
2017-11-07T17:59:03.800Z,11.50
2017-11-07T18:01:31.986Z,10.60
2017-11-07T18:04:00.168Z,9.80
2017-11-07T18:06:27.575Z,9.57
2017-11-07T18:08:54.987Z,9.40
2017-11-07T18:11:22.395Z,9.00
2017-11-07T18:13:49.814Z,8.87
2017-11-07T18:16:17.230Z,9.90
2017-11-07T18:18:45.414Z,10.00
2017-11-07T18:21:12.830Z,10.60
2017-11-07T18:23:40.260Z,10.27
2017-11-07T18:26:07.674Z,9.07
2017-11-07T18:28:35.858Z,9.13
2017-11-07T18:31:03.829Z,9.57
2017-11-07T18:33:32.017Z,9.87
2017-11-07T18:35:59.413Z,9.47
2017-11-07T18:38:26.823Z,9.80
2017-11-07T18:40:54.238Z,9.40
2017-11-07T18:43:21.647Z,10.70
2017-11-07T18:45:49.736Z,9.50
2017-11-07T18:48:17.147Z,9.97
2017-11-07T18:50:45.331Z,10.87
2017-11-07T18:53:12.745Z,9.30
2017-11-07T18:55:40.159Z,9.73
2017-11-07T18:58:07.566Z,10.70
2017-11-07T19:00:34.979Z,9.43
2017-11-07T19:03:02.382Z,9.20
2017-11-07T19:05:30.570Z,9.70
2017-11-07T19:07:58.759Z,9.03
2017-11-07T19:10:26.178Z,8.73
2017-11-07T19:12:53.591Z,9.90
2017-11-07T19:15:21.006Z,9.03
2017-11-07T19:17:49.191Z,9.93
2017-11-07T19:20:17.379Z,10.10
2017-11-07T19:22:44.791Z,10.90
2017-11-07T19:25:12.217Z,10.83
2017-11-07T19:27:39.630Z,10.10
2017-11-07T19:30:07.818Z,10.87
2017-11-07T19:35:25.894Z,10.10
2017-11-07T19:37:53.306Z,10.07
2017-11-07T19:40:21.489Z,10.57
2017-11-07T19:42:49.690Z,10.27
2017-11-07T19:45:17.089Z,10.47
2017-11-07T19:47:44.514Z,10.80
2017-11-07T19:50:11.917Z,10.33
2017-11-07T19:52:40.101Z,9.13
2017-11-07T19:55:08.277Z,9.83
2017-11-07T19:57:36.466Z,10.93
2017-11-07T20:00:04.513Z,11.60
2017-11-07T20:02:32.706Z,10.63
2017-11-07T20:05:00.126Z,12.13
2017-11-07T20:07:27.544Z,11.70
2017-11-07T20:09:54.950Z,11.83
2017-11-07T20:12:22.371Z,10.63
2017-11-07T20:14:50.554Z,12.30
2017-11-07T20:17:17.966Z,11.80
2017-11-07T20:19:45.386Z,11.67
2017-11-07T20:22:12.817Z,12.87
2017-11-07T20:24:40.228Z,11.57
2017-11-07T20:27:08.398Z,11.53
2017-11-07T20:29:36.573Z,10.43
2017-11-07T20:32:03.991Z,13.60
2017-11-07T20:34:31.413Z,12.10
2017-11-07T20:36:58.822Z,11.47
2017-11-07T20:39:26.253Z,11.27
2017-11-07T20:41:53.661Z,12.50
2017-11-07T20:44:21.086Z,13.57
2017-11-07T20:46:48.493Z,12.83
2017-11-07T20:49:15.897Z,13.47
2017-11-07T20:51:45.094Z,13.03
2017-11-07T20:54:12.510Z,12.90
2017-11-07T20:56:39.930Z,13.80
2017-11-07T20:59:07.353Z,13.10
2017-11-07T21:01:34.763Z,13.10
2017-11-07T21:04:02.184Z,11.83
2017-11-07T21:06:30.370Z,12.80
2017-11-07T21:08:58.541Z,13.17
2017-11-07T21:11:26.726Z,14.33
2017-11-07T21:13:54.146Z,13.30
2017-11-07T21:16:21.565Z,13.53
2017-11-07T21:18:51.861Z,15.13
2017-11-07T21:21:19.282Z,14.60
2017-11-07T21:23:46.695Z,13.57
2017-11-07T21:26:14.118Z,16.00
2017-11-07T21:28:42.302Z,11.93
2017-11-07T21:31:09.747Z,14.77
2017-11-07T21:33:37.917Z,14.57
2017-11-07T21:36:06.106Z,16.03
2017-11-07T21:38:33.518Z,15.40
2017-11-07T21:41:00.941Z,16.17
2017-11-07T21:43:28.353Z,15.60
2017-11-07T21:45:56.547Z,14.23
2017-11-07T21:48:24.722Z,16.20
2017-11-07T21:50:52.130Z,14.60
2017-11-07T21:53:19.549Z,15.80
2017-11-07T21:55:46.962Z,15.53
2017-11-07T21:58:14.391Z,15.30
2017-11-07T22:00:41.809Z,15.90
2017-11-07T22:03:09.234Z,16.07
2017-11-07T22:05:36.642Z,16.23
2017-11-07T22:08:04.065Z,15.30
2017-11-07T22:10:31.484Z,18.20
2017-11-07T22:12:58.925Z,17.70
2017-11-07T22:15:27.113Z,19.20
2017-11-07T22:17:55.466Z,18.13
2017-11-07T22:20:22.882Z,19.53
2017-11-07T22:22:56.970Z,15.67
2017-11-07T22:25:24.386Z,18.63
2017-11-07T22:27:51.792Z,17.27
2017-11-07T22:30:19.993Z,16.93
2017-11-07T22:32:47.399Z,17.60
2017-11-07T22:35:14.820Z,17.20
2017-11-07T22:37:42.234Z,18.73
2017-11-07T22:40:09.649Z,16.80
2017-11-07T22:42:37.063Z,17.90
2017-11-07T22:45:05.246Z,18.10
2017-11-07T22:47:32.655Z,20.70
2017-11-07T22:50:00.070Z,26.33
2017-11-07T22:52:27.490Z,21.03
2017-11-07T22:54:54.902Z,18.20
2017-11-07T22:57:22.322Z,18.20
2017-11-07T22:59:49.734Z,17.30
2017-11-07T23:02:17.149Z,18.20
2017-11-07T23:04:44.573Z,15.77
2017-11-07T23:07:12.758Z,19.17
2017-11-07T23:09:40.934Z,18.30
2017-11-07T23:12:08.359Z,17.40
2017-11-07T23:14:35.795Z,17.50
2017-11-07T23:17:03.202Z,16.00
2017-11-07T23:19:31.378Z,17.60
2017-11-07T23:21:58.802Z,15.67
2017-11-07T23:24:26.216Z,15.77
2017-11-07T23:26:53.636Z,15.60
2017-11-07T23:29:21.809Z,16.13
2017-11-07T23:31:49.999Z,17.00
2017-11-07T23:34:17.407Z,15.80
2017-11-07T23:36:44.821Z,16.23
2017-11-07T23:39:12.231Z,14.10
2017-11-07T23:41:39.646Z,16.23
2017-11-07T23:44:07.066Z,13.27
2017-11-07T23:46:35.257Z,15.00
2017-11-07T23:49:02.665Z,13.77
2017-11-07T23:51:30.079Z,13.77
2017-11-07T23:53:57.501Z,12.63
2017-11-07T23:56:25.686Z,12.70
2017-11-07T23:58:55.637Z,13.90
